createdAt,value
2023-04-17T00:01:43.983Z,28.97
2023-04-17T00:04:11.500Z,33.13
2023-04-17T00:06:45.094Z,29.93
2023-04-17T00:09:12.564Z,36.07
2023-04-17T00:11:39.570Z,33.77
2023-04-17T00:14:06.747Z,35.67
2023-04-17T00:16:33.640Z,35.40
2023-04-17T00:19:00.527Z,33.87
2023-04-17T00:21:29.846Z,33.57
2023-04-17T00:23:56.906Z,32.83
2023-04-17T00:26:24.200Z,35.07
2023-04-17T00:28:52.032Z,33.50
2023-04-17T00:31:19.001Z,34.33
2023-04-17T00:33:46.568Z,36.27
2023-04-17T00:36:15.525Z,39.20
2023-04-17T00:38:42.696Z,33.10
2023-04-17T00:41:09.814Z,33.00
2023-04-17T00:43:36.773Z,32.53
2023-04-17T00:46:04.646Z,37.63
2023-04-17T00:48:33.098Z,34.90
2023-04-17T00:51:03.507Z,35.23
2023-04-17T00:53:33.789Z,33.23
2023-04-17T00:56:01.569Z,35.83
2023-04-17T00:58:28.446Z,36.07
2023-04-17T01:00:55.343Z,33.00
2023-04-17T01:03:23.269Z,34.93
2023-04-17T01:05:51.775Z,33.43
2023-04-17T01:08:19.665Z,37.33
2023-04-17T01:10:47.348Z,35.37
2023-04-17T01:13:14.114Z,34.33
2023-04-17T01:15:42.993Z,35.80
2023-04-17T01:18:09.928Z,38.40
2023-04-17T01:20:37.739Z,35.50
2023-04-17T01:23:04.569Z,36.40
2023-04-17T01:25:31.474Z,38.43
2023-04-17T01:27:58.234Z,35.47
2023-04-17T01:30:26.778Z,37.60
2023-04-17T01:33:06.214Z,36.10
2023-04-17T01:35:33.006Z,38.00
2023-04-17T01:37:59.807Z,37.97
2023-04-17T01:40:26.566Z,37.77
2023-04-17T01:42:53.410Z,43.13
2023-04-17T01:45:21.185Z,37.00
2023-04-17T01:47:48.852Z,41.03
2023-04-17T01:50:15.746Z,48.87
2023-04-17T01:52:42.873Z,40.20
2023-04-17T01:55:09.936Z,38.30
2023-04-17T01:57:36.977Z,40.93
2023-04-17T02:00:07.946Z,38.80
2023-04-17T02:02:39.464Z,37.63
2023-04-17T02:05:06.955Z,35.00
2023-04-17T02:07:33.657Z,41.67
2023-04-17T02:10:00.366Z,37.47
2023-04-17T02:12:27.322Z,41.30
2023-04-17T02:14:54.245Z,40.87
2023-04-17T02:17:21.078Z,39.13
2023-04-17T02:19:47.877Z,47.17
2023-04-17T02:22:14.641Z,41.20
2023-04-17T02:24:41.336Z,38.60
2023-04-17T02:27:08.124Z,43.83
2023-04-17T02:29:35.476Z,48.10
2023-04-17T02:32:02.217Z,44.23
2023-04-17T02:34:30.172Z,44.73
2023-04-17T02:36:57.179Z,44.63
2023-04-17T02:39:24.606Z,40.87
2023-04-17T02:41:51.308Z,42.80
2023-04-17T02:44:18.178Z,48.73
2023-04-17T02:46:44.978Z,47.17
2023-04-17T02:49:12.995Z,50.20
2023-04-17T02:51:39.976Z,47.47
2023-04-17T02:54:06.766Z,48.30
2023-04-17T02:56:33.778Z,45.37
2023-04-17T02:59:00.610Z,45.50
2023-04-17T03:01:28.022Z,44.33
2023-04-17T03:03:55.133Z,48.77
2023-04-17T03:06:24.142Z,43.70
2023-04-17T03:08:51.658Z,47.20
2023-04-17T03:11:18.590Z,52.30
2023-04-17T03:13:45.618Z,55.20
2023-04-17T03:16:13.768Z,52.57
2023-04-17T03:18:41.752Z,50.17
2023-04-17T03:21:08.510Z,46.33
2023-04-17T03:23:35.795Z,47.30
2023-04-17T03:26:02.598Z,50.83
2023-04-17T03:28:32.507Z,46.87
2023-04-17T03:30:59.711Z,56.23
2023-04-17T03:33:27.217Z,58.80
2023-04-17T03:35:56.769Z,52.30
2023-04-17T03:38:23.479Z,51.07
2023-04-17T03:40:50.433Z,55.07
2023-04-17T03:43:17.252Z,52.23
2023-04-17T03:45:45.674Z,50.63
2023-04-17T03:48:13.084Z,56.03
2023-04-17T03:50:40.007Z,51.60
2023-04-17T03:53:06.822Z,45.67
2023-04-17T03:55:33.663Z,46.23
2023-04-17T03:58:02.591Z,53.87
2023-04-17T04:00:31.899Z,43.87
2023-04-17T04:03:04.935Z,43.40
2023-04-17T04:05:38.474Z,44.60
2023-04-17T04:08:07.075Z,43.23
2023-04-17T04:10:40.453Z,49.00
2023-04-17T04:13:07.311Z,41.63
2023-04-17T04:15:34.554Z,47.30
2023-04-17T04:18:05.795Z,46.87
2023-04-17T04:20:32.612Z,41.47
2023-04-17T04:23:10.950Z,39.00
2023-04-17T04:25:41.776Z,50.50
2023-04-17T04:28:23.452Z,45.90
2023-04-17T04:30:51.428Z,43.37
2023-04-17T04:33:21.026Z,41.77
2023-04-17T04:35:48.840Z,42.00
2023-04-17T04:38:17.265Z,45.90
2023-04-17T04:40:50.297Z,43.27
2023-04-17T04:43:17.911Z,47.00
2023-04-17T04:45:47.120Z,42.70
2023-04-17T04:48:14.052Z,41.37
2023-04-17T04:50:41.098Z,40.37
2023-04-17T04:53:07.807Z,36.00
2023-04-17T04:55:54.552Z,41.13
2023-04-17T04:58:21.601Z,39.57
2023-04-17T05:00:49.331Z,35.13
2023-04-17T05:03:29.495Z,41.37
2023-04-17T05:05:58.043Z,34.50
2023-04-17T05:08:30.756Z,31.70
2023-04-17T05:11:08.716Z,32.13
2023-04-17T05:13:35.768Z,33.77
2023-04-17T05:16:02.820Z,32.80
2023-04-17T05:18:30.292Z,31.00
2023-04-17T05:20:57.076Z,29.67
2023-04-17T05:23:26.241Z,29.60
2023-04-17T05:25:52.961Z,34.73
2023-04-17T05:28:20.302Z,34.70
2023-04-17T05:30:48.894Z,29.97
2023-04-17T05:33:21.633Z,36.80
2023-04-17T05:35:52.332Z,32.63
2023-04-17T05:38:21.411Z,35.37
2023-04-17T05:40:48.229Z,34.90
2023-04-17T05:43:16.685Z,33.13
2023-04-17T05:45:43.462Z,35.20
2023-04-17T05:48:11.015Z,36.77
2023-04-17T05:50:37.797Z,38.67
2023-04-17T05:53:06.195Z,39.43
2023-04-17T05:55:37.913Z,40.37
2023-04-17T05:58:22.622Z,36.53
2023-04-17T06:00:52.911Z,40.77
2023-04-17T06:03:21.158Z,42.97
2023-04-17T06:05:52.804Z,34.43
2023-04-17T06:08:20.931Z,37.17
2023-04-17T06:10:50.448Z,38.83
2023-04-17T06:13:17.521Z,36.87
2023-04-17T06:15:47.280Z,34.70
2023-04-17T06:18:16.188Z,36.27
2023-04-17T06:20:46.208Z,33.13
2023-04-17T06:23:13.802Z,35.40
2023-04-17T06:25:42.321Z,38.77
2023-04-17T06:28:10.877Z,32.80
2023-04-17T06:30:38.442Z,31.20
2023-04-17T06:33:07.148Z,37.27
2023-04-17T06:35:35.346Z,34.53
2023-04-17T06:38:12.631Z,35.73
2023-04-17T06:40:39.790Z,27.73
2023-04-17T06:43:10.277Z,34.27
2023-04-17T06:45:42.436Z,30.17
2023-04-17T06:48:09.731Z,26.60
2023-04-17T06:50:38.992Z,27.60
2023-04-17T06:53:06.567Z,27.03
2023-04-17T06:55:36.374Z,28.87
2023-04-17T06:58:05.003Z,28.27
2023-04-17T07:00:31.736Z,29.47
2023-04-17T07:02:58.630Z,28.00
2023-04-17T07:05:25.861Z,28.70
2023-04-17T07:07:52.597Z,27.87
2023-04-17T07:10:19.680Z,29.87
2023-04-17T07:12:47.246Z,32.17
2023-04-17T07:15:14.174Z,28.90
2023-04-17T07:17:41.040Z,30.00
2023-04-17T07:20:08.536Z,28.77
2023-04-17T07:22:35.596Z,30.40
2023-04-17T07:25:02.393Z,26.87
2023-04-17T07:27:29.150Z,27.80
2023-04-17T07:29:56.554Z,27.47
2023-04-17T07:32:26.334Z,31.33
2023-04-17T07:34:53.214Z,27.47
2023-04-17T07:37:20.167Z,28.97
2023-04-17T07:39:50.293Z,27.47
2023-04-17T07:42:17.142Z,30.10
2023-04-17T07:44:43.794Z,31.10
2023-04-17T07:47:10.810Z,31.17
2023-04-17T07:49:39.729Z,31.23
2023-04-17T07:52:06.701Z,29.77
2023-04-17T07:54:33.521Z,32.60
2023-04-17T07:57:03.620Z,30.77
2023-04-17T07:59:30.877Z,33.27
2023-04-17T08:01:58.326Z,33.40
2023-04-17T08:04:26.154Z,36.70
2023-04-17T08:06:53.012Z,36.40
2023-04-17T08:09:21.361Z,35.07
2023-04-17T08:11:56.898Z,32.40
2023-04-17T08:14:25.155Z,35.20
2023-04-17T08:16:52.226Z,35.97
2023-04-17T08:19:19.111Z,34.00
2023-04-17T08:21:49.865Z,36.30
2023-04-17T08:24:19.765Z,34.93
2023-04-17T08:26:47.746Z,32.40
2023-04-17T08:29:15.118Z,32.57
2023-04-17T08:31:42.700Z,32.87
2023-04-17T08:36:40.133Z,30.43
2023-04-17T08:39:08.782Z,36.83
2023-04-17T08:41:41.530Z,38.70
2023-04-17T08:44:08.629Z,32.90
2023-04-17T08:46:43.255Z,34.73
2023-04-17T08:49:10.520Z,36.70
2023-04-17T08:51:37.590Z,40.27
2023-04-17T08:54:05.083Z,38.27
2023-04-17T08:56:31.869Z,35.47
2023-04-17T08:59:03.257Z,34.77
2023-04-17T09:01:30.380Z,34.30
2023-04-17T09:04:03.189Z,32.37
2023-04-17T09:06:49.752Z,39.37
2023-04-17T09:09:19.028Z,36.47
2023-04-17T09:11:45.949Z,40.10
2023-04-17T09:14:31.593Z,35.43
2023-04-17T09:16:58.375Z,35.37
2023-04-17T09:19:25.308Z,32.17
2023-04-17T09:21:54.656Z,33.57
2023-04-17T09:24:34.761Z,34.70
2023-04-17T09:27:31.955Z,36.50
2023-04-17T09:30:03.937Z,38.83
2023-04-17T09:32:32.762Z,32.63
2023-04-17T09:35:01.652Z,30.00
2023-04-17T09:37:51.701Z,33.73
2023-04-17T09:40:21.739Z,29.83
2023-04-17T09:43:09.869Z,32.23
2023-04-17T09:45:41.703Z,32.73
2023-04-17T09:48:13.256Z,31.10
2023-04-17T09:50:40.541Z,29.87
2023-04-17T09:53:08.454Z,29.20
2023-04-17T09:55:38.218Z,32.67
2023-04-17T09:58:06.523Z,32.00
2023-04-17T10:00:33.451Z,33.60
2023-04-17T10:03:00.955Z,33.80
2023-04-17T10:05:30.271Z,31.53
2023-04-17T10:07:57.412Z,31.63
2023-04-17T10:10:33.856Z,31.23
2023-04-17T10:15:34.475Z,34.53
2023-04-17T10:18:25.529Z,32.53
2023-04-17T10:20:54.106Z,30.03
2023-04-17T10:23:27.965Z,35.10
2023-04-17T10:26:25.740Z,32.27
2023-04-17T10:28:54.324Z,35.80
2023-04-17T10:31:23.451Z,31.07
2023-04-17T10:33:51.720Z,28.53
2023-04-17T10:36:39.772Z,32.77
2023-04-17T10:39:18.226Z,30.30
2023-04-17T10:42:05.476Z,35.30
2023-04-17T10:44:36.026Z,34.37
2023-04-17T10:47:07.455Z,30.13
2023-04-17T10:49:48.822Z,35.87
2023-04-17T10:52:41.453Z,33.17
2023-04-17T10:55:09.746Z,29.40
2023-04-17T10:58:06.010Z,32.73
2023-04-17T11:00:36.899Z,29.13
2023-04-17T11:03:05.074Z,34.53
2023-04-17T11:05:32.753Z,34.93
2023-04-17T11:07:59.702Z,36.87
2023-04-17T11:10:27.676Z,30.77
2023-04-17T11:12:56.535Z,31.60
2023-04-17T11:15:37.299Z,30.77
2023-04-17T11:18:04.354Z,31.77
2023-04-17T11:20:33.235Z,30.10
2023-04-17T11:23:05.800Z,30.70
2023-04-17T11:25:35.735Z,30.33
2023-04-17T11:28:05.929Z,30.87
2023-04-17T11:30:42.296Z,33.93
2023-04-17T11:33:09.539Z,29.50
2023-04-17T11:35:40.936Z,28.93
2023-04-17T11:38:23.478Z,30.40
2023-04-17T11:40:54.720Z,29.40
2023-04-17T11:43:23.479Z,30.03
2023-04-17T11:45:54.071Z,26.60
2023-04-17T11:48:32.480Z,29.10
2023-04-17T11:51:03.771Z,29.80
2023-04-17T11:53:31.084Z,32.63
2023-04-17T11:56:16.321Z,29.47
2023-04-17T11:58:47.116Z,32.10
2023-04-17T12:01:13.923Z,28.60
2023-04-17T12:03:41.853Z,28.93
2023-04-17T12:06:11.856Z,29.17
2023-04-17T12:08:56.737Z,32.13
2023-04-17T12:11:26.323Z,27.50
2023-04-17T12:13:54.246Z,24.20
2023-04-17T12:16:21.810Z,29.67
2023-04-17T12:18:48.743Z,26.83
2023-04-17T12:21:15.620Z,28.10
2023-04-17T12:23:42.752Z,31.53
2023-04-17T12:26:09.893Z,28.37
2023-04-17T12:28:36.747Z,31.37
2023-04-17T12:31:04.749Z,30.17
2023-04-17T12:33:32.540Z,28.77
2023-04-17T12:36:01.373Z,30.93
2023-04-17T12:38:28.721Z,25.90
2023-04-17T12:40:55.576Z,29.10
2023-04-17T12:43:22.380Z,29.77
2023-04-17T12:45:49.251Z,27.67
2023-04-17T12:48:16.268Z,29.63
2023-04-17T12:50:44.370Z,25.40
2023-04-17T12:53:13.598Z,27.13
2023-04-17T12:55:41.612Z,28.57
2023-04-17T12:58:10.188Z,29.83
2023-04-17T13:00:38.087Z,33.00
2023-04-17T13:03:05.681Z,27.60
2023-04-17T13:05:32.875Z,29.73
2023-04-17T13:07:59.722Z,29.63
2023-04-17T13:10:26.956Z,31.80
2023-04-17T13:12:53.749Z,32.37
2023-04-17T13:15:20.644Z,25.80
2023-04-17T13:17:47.670Z,31.87
2023-04-17T13:20:14.583Z,27.97
2023-04-17T13:22:41.383Z,28.13
2023-04-17T13:25:08.912Z,23.77
2023-04-17T13:27:35.680Z,25.63
2023-04-17T13:30:02.484Z,28.10
2023-04-17T13:32:29.224Z,27.53
2023-04-17T13:34:58.064Z,30.70
2023-04-17T13:37:25.805Z,28.13
2023-04-17T13:39:52.877Z,29.57
2023-04-17T13:42:19.976Z,26.40
2023-04-17T13:44:47.035Z,28.70
2023-04-17T13:47:15.250Z,28.00
2023-04-17T13:49:42.183Z,27.13
2023-04-17T13:52:09.130Z,27.03
2023-04-17T13:54:35.944Z,27.33
2023-04-17T13:57:03.192Z,27.83
2023-04-17T13:59:30.784Z,26.33
2023-04-17T14:01:57.965Z,26.03
2023-04-17T14:04:24.996Z,25.53
2023-04-17T14:06:51.997Z,27.57
2023-04-17T14:09:19.065Z,26.93
2023-04-17T14:11:46.228Z,25.67
2023-04-17T14:14:13.109Z,27.33
2023-04-17T14:16:40.779Z,30.80
2023-04-17T14:19:13.951Z,31.03
2023-04-17T14:21:41.846Z,27.60
2023-04-17T14:24:09.034Z,26.37
2023-04-17T14:26:37.794Z,26.63
2023-04-17T14:29:04.737Z,22.53
2023-04-17T14:31:32.044Z,23.83
2023-04-17T14:33:58.811Z,22.80
2023-04-17T14:36:26.299Z,23.97
2023-04-17T14:38:54.357Z,22.03
2023-04-17T14:41:21.271Z,22.37
2023-04-17T14:43:48.192Z,19.20
2023-04-17T14:46:15.087Z,24.97
2023-04-17T14:51:15.268Z,22.93
2023-04-17T14:53:42.140Z,25.10
2023-04-17T14:56:09.445Z,21.40
2023-04-17T14:58:36.308Z,22.63
2023-04-17T15:01:03.935Z,24.43
2023-04-17T15:03:32.434Z,26.90
2023-04-17T15:06:01.548Z,24.97
2023-04-17T15:08:28.707Z,20.00
2023-04-17T15:10:55.873Z,19.47
2023-04-17T15:13:22.582Z,21.83
2023-04-17T15:15:49.432Z,20.07
2023-04-17T15:18:16.308Z,18.27
2023-04-17T15:20:43.404Z,20.37
2023-04-17T15:23:10.179Z,21.47
2023-04-17T15:25:37.090Z,19.53
2023-04-17T15:28:04.190Z,22.40
2023-04-17T15:30:30.988Z,19.67
2023-04-17T15:32:59.498Z,21.93
2023-04-17T15:35:26.296Z,21.07
2023-04-17T15:37:53.238Z,20.63
2023-04-17T15:40:21.155Z,21.90
2023-04-17T15:42:49.524Z,25.87
2023-04-17T15:45:20.590Z,24.60
2023-04-17T15:47:50.796Z,27.23
2023-04-17T15:50:19.203Z,22.37
2023-04-17T15:52:51.942Z,23.00
2023-04-17T15:55:42.266Z,23.80
2023-04-17T15:58:13.099Z,26.93
2023-04-17T16:00:42.769Z,21.93
2023-04-17T16:03:12.748Z,24.83
2023-04-17T16:05:45.623Z,23.63
2023-04-17T16:08:12.826Z,24.63
2023-04-17T16:10:42.588Z,20.70
2023-04-17T16:13:09.635Z,20.20
2023-04-17T16:15:42.419Z,22.50
2023-04-17T16:18:09.738Z,19.63
2023-04-17T16:20:36.586Z,21.77
2023-04-17T16:23:09.389Z,17.47
2023-04-17T16:25:36.123Z,18.50
2023-04-17T16:28:12.734Z,17.97
2023-04-17T16:30:45.239Z,17.00
2023-04-17T16:33:22.564Z,19.23
2023-04-17T16:35:52.349Z,13.10
2023-04-17T16:38:31.741Z,15.70
2023-04-17T16:41:05.244Z,14.27
2023-04-17T16:43:35.340Z,13.80
2023-04-17T16:46:10.864Z,15.97
2023-04-17T16:48:46.061Z,14.80
2023-04-17T16:51:12.951Z,16.57
2023-04-17T16:53:44.900Z,12.37
2023-04-17T16:56:11.744Z,14.50
2023-04-17T16:58:38.619Z,20.17
2023-04-17T17:01:05.712Z,17.13
2023-04-17T17:03:33.866Z,13.47
2023-04-17T17:06:03.492Z,14.90
2023-04-17T17:08:30.716Z,15.70
2023-04-17T17:10:57.462Z,14.90
2023-04-17T17:13:24.362Z,14.40
2023-04-17T17:15:51.234Z,13.00
2023-04-17T17:18:18.205Z,13.77
2023-04-17T17:20:45.065Z,12.53
2023-04-17T17:23:11.893Z,12.03
2023-04-17T17:25:39.427Z,13.40
2023-04-17T17:28:06.187Z,15.47
2023-04-17T17:30:33.280Z,12.43
2023-04-17T17:33:00.486Z,13.20
2023-04-17T17:35:28.491Z,12.23
2023-04-17T17:37:55.208Z,13.47
2023-04-17T17:40:21.996Z,16.27
2023-04-17T17:42:48.998Z,14.07
2023-04-17T17:45:15.928Z,12.53
2023-04-17T17:47:42.609Z,11.87
2023-04-17T17:50:18.472Z,14.23
2023-04-17T17:52:58.764Z,12.17
2023-04-17T17:55:47.160Z,12.37
2023-04-17T17:58:16.921Z,12.30
2023-04-17T18:00:50.986Z,12.00
2023-04-17T18:03:18.349Z,17.00
2023-04-17T18:05:49.398Z,12.17
2023-04-17T18:08:23.383Z,13.23
2023-04-17T18:10:52.120Z,12.67
2023-04-17T18:13:19.092Z,15.20
2023-04-17T18:15:46.245Z,14.17
2023-04-17T18:18:13.297Z,11.80
2023-04-17T18:20:40.484Z,15.33
2023-04-17T18:23:07.418Z,12.67
2023-04-17T18:25:36.054Z,16.23
2023-04-17T18:28:05.172Z,13.50
2023-04-17T18:30:32.180Z,13.93
2023-04-17T18:32:59.185Z,13.37
2023-04-17T18:35:31.020Z,17.47
2023-04-17T18:38:04.670Z,15.57
2023-04-17T18:40:31.812Z,15.33
2023-04-17T18:42:59.550Z,16.03
2023-04-17T18:45:26.457Z,13.03
2023-04-17T18:47:53.342Z,14.53
2023-04-17T18:50:20.538Z,15.20
2023-04-17T18:52:50.933Z,17.67
2023-04-17T18:55:18.433Z,15.53
2023-04-17T18:57:46.518Z,12.00
2023-04-17T19:00:16.788Z,16.27
2023-04-17T19:02:54.448Z,14.80
2023-04-17T19:05:21.857Z,14.33
2023-04-17T19:07:49.306Z,13.80
2023-04-17T19:10:19.722Z,14.27
2023-04-17T19:12:49.824Z,14.47
2023-04-17T19:15:17.743Z,16.93
2023-04-17T19:17:47.987Z,14.30
2023-04-17T19:20:16.844Z,12.37
2023-04-17T19:22:43.835Z,13.47
2023-04-17T19:25:16.818Z,12.20
2023-04-17T19:27:44.423Z,13.70
2023-04-17T19:30:15.171Z,17.33
2023-04-17T19:32:45.038Z,16.60
2023-04-17T19:35:12.060Z,16.47
2023-04-17T19:37:39.183Z,14.97
2023-04-17T19:40:21.407Z,14.17
2023-04-17T19:42:51.034Z,12.93
2023-04-17T19:45:18.187Z,14.97
2023-04-17T19:47:45.352Z,14.87
2023-04-17T19:50:12.405Z,16.93
2023-04-17T19:52:40.217Z,15.67
2023-04-17T19:55:09.334Z,14.87
2023-04-17T19:57:36.622Z,17.90
2023-04-17T20:00:04.030Z,18.93
2023-04-17T20:02:39.458Z,15.03
2023-04-17T20:05:07.115Z,16.17
2023-04-17T20:07:34.164Z,15.60
2023-04-17T20:10:02.163Z,17.30
2023-04-17T20:12:31.852Z,17.73
2023-04-17T20:15:00.267Z,17.93
2023-04-17T20:17:30.832Z,18.03
2023-04-17T20:20:03.861Z,16.73
2023-04-17T20:22:40.319Z,15.03
2023-04-17T20:25:08.182Z,18.13
2023-04-17T20:27:36.649Z,19.87
2023-04-17T20:30:04.098Z,19.53
2023-04-17T20:32:32.328Z,15.93
2023-04-17T20:35:07.054Z,17.50
2023-04-17T20:37:34.705Z,17.03
2023-04-17T20:40:02.001Z,13.20
2023-04-17T20:42:29.332Z,18.63
2023-04-17T20:44:56.292Z,19.47
2023-04-17T20:47:27.295Z,17.97
2023-04-17T20:50:12.424Z,17.97
2023-04-17T20:52:58.545Z,21.07
2023-04-17T20:55:25.591Z,18.87
2023-04-17T20:57:56.602Z,19.60
2023-04-17T21:00:23.413Z,21.30
2023-04-17T21:02:50.350Z,19.40
2023-04-17T21:05:17.315Z,17.77
2023-04-17T21:07:44.138Z,17.27
2023-04-17T21:10:10.996Z,16.53
2023-04-17T21:12:37.840Z,15.93
2023-04-17T21:15:04.932Z,17.93
2023-04-17T21:17:31.615Z,18.10
2023-04-17T21:19:58.567Z,16.87
2023-04-17T21:22:27.949Z,15.73
2023-04-17T21:24:54.916Z,20.37
2023-04-17T21:27:21.667Z,16.10
2023-04-17T21:29:48.609Z,17.57
2023-04-17T21:32:15.442Z,18.90
2023-04-17T21:34:42.248Z,16.83
2023-04-17T21:37:09.072Z,17.73
2023-04-17T21:39:35.923Z,21.93
2023-04-17T21:42:02.728Z,24.70
2023-04-17T21:44:29.450Z,20.70
2023-04-17T21:46:57.515Z,19.37
2023-04-17T21:49:24.369Z,20.87
2023-04-17T21:51:51.250Z,21.20
2023-04-17T21:54:17.924Z,22.37
2023-04-17T21:56:44.786Z,22.50
2023-04-17T21:59:15.098Z,18.70
2023-04-17T22:01:41.944Z,19.50
2023-04-17T22:04:08.806Z,22.37
2023-04-17T22:06:39.406Z,25.37
2023-04-17T22:09:06.249Z,20.67
2023-04-17T22:11:32.896Z,23.57
2023-04-17T22:13:59.684Z,25.47
2023-04-17T22:16:26.448Z,20.80
2023-04-17T22:18:53.240Z,26.20
2023-04-17T22:21:20.113Z,29.50
2023-04-17T22:23:46.764Z,26.10
2023-04-17T22:26:13.558Z,25.60
2023-04-17T22:28:40.316Z,23.77
2023-04-17T22:31:07.055Z,24.77
2023-04-17T22:33:33.790Z,25.73
2023-04-17T22:36:00.646Z,26.63
2023-04-17T22:38:29.273Z,22.53
2023-04-17T22:40:56.019Z,26.27
2023-04-17T22:43:22.675Z,23.73
2023-04-17T22:45:49.486Z,27.10
2023-04-17T22:48:16.228Z,24.57
2023-04-17T22:50:43.813Z,24.33
2023-04-17T22:53:10.689Z,28.10
2023-04-17T22:55:37.458Z,23.87
2023-04-17T22:58:04.449Z,25.60
2023-04-17T23:00:32.132Z,25.83
2023-04-17T23:02:58.984Z,24.93
2023-04-17T23:05:25.823Z,22.93
2023-04-17T23:07:52.646Z,25.27
2023-04-17T23:10:22.456Z,23.33
2023-04-17T23:12:49.273Z,23.07
2023-04-17T23:15:16.018Z,23.67
2023-04-17T23:17:42.846Z,22.13
2023-04-17T23:20:10.011Z,22.37
2023-04-17T23:22:36.806Z,23.03
2023-04-17T23:25:03.781Z,22.17
2023-04-17T23:27:30.978Z,22.13
2023-04-17T23:29:59.162Z,20.60
2023-04-17T23:32:25.966Z,22.30
2023-04-17T23:34:52.636Z,21.87
2023-04-17T23:37:19.586Z,25.83
2023-04-17T23:39:47.434Z,24.17
2023-04-17T23:42:14.462Z,22.53
2023-04-17T23:44:41.136Z,28.43
2023-04-17T23:47:08.919Z,21.03
2023-04-17T23:49:36.080Z,21.07
2023-04-17T23:52:02.953Z,23.23
2023-04-17T23:54:33.025Z,21.83
2023-04-17T23:57:00.207Z,20.20
2023-04-17T23:59:34.573Z,24.40
